Hlavní strana
METAR-TAF:

METAR-TAF

Letiště :

Laghouat, Alžírsko

zeměpisná šířka: 33-46N, zeměpisná délka: 002-56E, výška: 765 m

Aktuální stav počasí

Zpráva byla vytvořena před 1 hodinou a 17 minutami, v 03:00 UTC
Bezvětří
Teplota 16°C
Vlhkost vzduchu 48%
Tlak 1021 hPa
Viditelnost 10 km a více
Skoro jasno ve výšce 4000 ft
Polojasno ve výšce 10000 ft

METAR: DAUL 070300Z 00000KT 9999 FEW040 SCT100 16/05 Q1021

Čas: 05:17 (04:17 UTC)

Předpověď počasí

Zpráva byla vytvořena před 5 hodinami a 17 minutami, v 23:00 UTC
Předpověď platná od 07 v 00 UTC do 07 v 09 UTC
Severní vítr 6 kt
Viditelnost 10 km a více
Skoro jasno ve výšce 3300 ft
Polojasno ve výšce 10000 ft
Pravděpodobnost 30% :
Dočasný
od 07 v 00 UTC do 07 v 03 UTC
Skoro jasno ve výšce 3000 ft, Vertikální cumulus.

TAF: DAUL 062300Z 0700/0709 35006KT 9999 FEW033 SCT100 PROB30 TEMPO 0700/0703 FEW030TCU

Stav a předpovědi počasí z více než 4 000 letišť (zprávy METAR a TAF).

Červené a žluté tečky na mapě představují dostupné meteorologické stanice.

Když kurzor umístíte na tečku, zobrazí se název stanice.

Pak kliknutím zobrazíte stav a předpověď počasí.

Chcete-li změnit mapu, kliknutím na zelené tlačítko se znaménkem +mapu přiblížíte, kliknutím na zelené tlačítko se znaménkem – mapu oddálíte a kliknutím na zelené šipky přejdete na sousední mapy.


METAR-TAF: